Time;durP1;ratioP1;P1;durP2;ratioP2;P2;SDS_P1;SDS_P2;PMS_P1;PMS_P2;Temp;Humidity;BMP_temperature;BMP_pressure;BME280_temperature;BME280_humidity;BME280_pressure;Samples;Min_cycle;Max_cycle;Signal;HPM_P1;HPM_P2
2021/10/06 00:00:59;;;;;;;6.38;1.33;;;12.80;99.90;;;;;;5051621;28;20036;-86
2021/10/06 00:03:24;;;;;;;5.85;1.45;;;12.70;99.90;;;;;;5054294;28;20544;-85
2021/10/06 00:05:50;;;;;;;5.43;1.52;;;12.70;99.90;;;;;;5052997;28;20021;-86
2021/10/06 00:08:15;;;;;;;7.78;1.70;;;12.80;99.90;;;;;;5053128;28;20132;-86
2021/10/06 00:10:41;;;;;;;5.78;1.60;;;12.70;99.90;;;;;;5052235;28;20107;-86
2021/10/06 00:13:07;;;;;;;4.88;1.30;;;12.70;99.90;;;;;;5052860;28;20021;-86
2021/10/06 00:15:33;;;;;;;3.25;0.98;;;12.70;99.90;;;;;;5054020;28;20151;-86
2021/10/06 00:17:59;;;;;;;6.38;1.98;;;12.70;99.90;;;;;;5054081;28;20033;-86
2021/10/06 00:20:24;;;;;;;5.78;1.13;;;12.70;99.90;;;;;;5052051;28;20048;-86
2021/10/06 00:22:50;;;;;;;3.78;1.20;;;12.60;99.90;;;;;;5052757;28;20047;-86
2021/10/06 00:25:16;;;;;;;5.45;1.20;;;12.60;99.90;;;;;;5054083;28;20051;-86
2021/10/06 00:27:41;;;;;;;7.43;1.33;;;12.70;99.90;;;;;;5053869;28;20037;-86
2021/10/06 00:30:07;;;;;;;5.43;1.20;;;12.60;99.90;;;;;;5051842;28;20025;-86
2021/10/06 00:32:33;;;;;;;4.25;1.02;;;12.60;99.90;;;;;;5053618;28;20028;-86
2021/10/06 00:34:58;;;;;;;6.22;1.25;;;12.60;99.90;;;;;;5052505;28;20025;-86
2021/10/06 00:37:24;;;;;;;6.38;1.30;;;12.60;99.90;;;;;;5053682;28;20060;-86
2021/10/06 00:39:50;;;;;;;3.42;1.20;;;12.50;99.90;;;;;;5051714;28;20078;-86
2021/10/06 00:42:15;;;;;;;8.02;1.30;;;12.50;99.90;;;;;;5053485;28;20025;-86
2021/10/06 00:44:41;;;;;;;5.57;1.23;;;12.50;99.90;;;;;;5052300;28;20108;-86
2021/10/06 00:47:11;;;;;;;5.45;1.02;;;12.50;99.90;;;;;;5053520;28;20096;-86
2021/10/06 00:49:36;;;;;;;5.57;1.17;;;12.50;99.90;;;;;;5053078;28;20096;-86
2021/10/06 00:52:02;;;;;;;5.80;1.20;;;12.50;99.90;;;;;;5051863;28;20478;-87
2021/10/06 00:54:28;;;;;;;6.38;1.42;;;12.50;99.90;;;;;;5052071;28;20074;-86
2021/10/06 00:56:54;;;;;;;3.92;1.13;;;12.50;99.90;;;;;;5053275;28;20048;-85
2021/10/06 00:59:19;;;;;;;3.78;0.95;;;12.50;99.90;;;;;;5052598;28;20064;-86
2021/10/06 01:01:45;;;;;;;5.07;1.33;;;12.50;99.90;;;;;;5051953;28;20029;-86
2021/10/06 01:04:11;;;;;;;4.82;1.17;;;12.50;99.90;;;;;;5052143;28;20033;-86
2021/10/06 01:06:37;;;;;;;4.68;1.30;;;12.50;99.90;;;;;;5053112;28;20505;-85
2021/10/06 01:09:03;;;;;;;4.75;1.35;;;12.40;99.90;;;;;;5051063;28;20532;-86
2021/10/06 01:11:29;;;;;;;6.32;1.25;;;12.50;99.90;;;;;;5051689;28;20029;-86
2021/10/06 01:13:56;;;;;;;5.50;1.20;;;12.40;99.90;;;;;;5050620;28;20027;-86
2021/10/06 01:16:22;;;;;;;5.57;1.70;;;12.40;99.90;;;;;;5051683;28;20029;-86
2021/10/06 01:18:48;;;;;;;5.85;1.35;;;12.40;99.90;;;;;;5051061;28;20021;-86
2021/10/06 01:21:18;;;;;;;4.03;1.13;;;12.50;99.90;;;;;;5056632;28;20068;-84
2021/10/06 01:23:46;;;;;;;4.03;1.23;;;12.50;99.90;;;;;;5056819;28;20498;-84
2021/10/06 01:26:18;;;;;;;5.05;1.52;;;12.50;99.90;;;;;;5055800;28;20052;-84
2021/10/06 01:28:48;;;;;;;7.82;1.67;;;12.50;99.90;;;;;;5057621;28;20032;-84
2021/10/06 01:31:14;;;;;;;4.97;1.50;;;12.40;99.90;;;;;;5055364;28;20048;-84
2021/10/06 01:33:41;;;;;;;7.00;1.30;;;12.50;99.90;;;;;;5057604;28;20028;-85
2021/10/06 01:36:07;;;;;;;6.40;1.35;;;12.50;99.90;;;;;;5057571;28;20217;-84
2021/10/06 01:38:32;;;;;;;3.63;1.10;;;12.50;99.90;;;;;;5055793;28;20485;-84
2021/10/06 01:40:58;;;;;;;4.95;1.15;;;12.50;99.90;;;;;;5055348;28;20037;-85
2021/10/06 01:43:24;;;;;;;5.80;1.38;;;12.40;99.90;;;;;;5057816;28;20040;-84
2021/10/06 01:45:49;;;;;;;4.80;1.48;;;12.50;99.90;;;;;;5055938;28;20029;-84
2021/10/06 01:48:15;;;;;;;9.35;1.70;;;12.50;99.90;;;;;;5056349;28;20029;-86
2021/10/06 01:50:42;;;;;;;5.43;1.50;;;12.40;99.90;;;;;;5055114;28;20025;-84
2021/10/06 01:53:13;;;;;;;5.22;1.30;;;12.40;99.90;;;;;;5055958;28;20025;-85
2021/10/06 01:55:40;;;;;;;8.80;1.65;;;12.50;99.90;;;;;;5057444;28;20454;-86
2021/10/06 01:58:10;;;;;;;6.28;1.30;;;12.50;99.90;;;;;;5055922;28;20113;-84
2021/10/06 02:00:38;;;;;;;6.28;1.38;;;12.50;99.90;;;;;;5057560;28;20518;-84
2021/10/06 02:03:04;;;;;;;6.15;1.23;;;12.50;99.90;;;;;;5056275;28;20037;-85
2021/10/06 02:05:33;;;;;;;8.80;1.42;;;12.50;99.90;;;;;;5058360;28;20503;-85
2021/10/06 02:08:03;;;;;;;8.23;1.58;;;12.50;99.90;;;;;;5057507;28;20040;-85
2021/10/06 02:10:29;;;;;;;6.22;1.23;;;12.50;99.90;;;;;;5055423;28;20179;-85
2021/10/06 02:12:55;;;;;;;7.45;1.80;;;12.40;99.90;;;;;;5057856;28;20052;-85
2021/10/06 02:15:20;;;;;;;5.85;1.30;;;12.50;99.90;;;;;;5058055;28;20018;-84
2021/10/06 02:17:46;;;;;;;6.15;1.60;;;12.50;99.90;;;;;;5057333;28;20075;-85
2021/10/06 02:20:12;;;;;;;6.68;1.33;;;12.50;99.90;;;;;;5056096;28;20043;-85
2021/10/06 02:22:38;;;;;;;5.80;1.50;;;12.50;99.90;;;;;;5059787;28;20052;-84
2021/10/06 02:25:04;;;;;;;10.00;2.00;;;12.50;99.90;;;;;;5057742;28;20078;-84
2021/10/06 02:27:30;;;;;;;6.38;1.30;;;12.50;99.90;;;;;;5059282;28;20033;-85
2021/10/06 02:29:56;;;;;;;8.50;1.80;;;12.50;99.90;;;;;;5057700;28;20025;-85
2021/10/06 02:32:21;;;;;;;5.88;1.80;;;12.50;99.90;;;;;;5059150;28;20017;-85
2021/10/06 02:34:47;;;;;;;8.45;1.40;;;12.50;99.90;;;;;;5058392;28;20394;-85
2021/10/06 02:37:13;;;;;;;8.32;2.15;;;12.50;99.90;;;;;;5059857;28;20433;-84
2021/10/06 02:39:39;;;;;;;11.60;1.75;;;12.60;99.90;;;;;;5059144;28;20029;-84
2021/10/06 02:42:05;;;;;;;7.30;1.77;;;12.50;99.90;;;;;;5059919;28;20032;-85
2021/10/06 02:44:30;;;;;;;12.00;2.08;;;12.60;99.90;;;;;;5060035;28;20021;-87
2021/10/06 02:46:56;;;;;;;5.65;1.70;;;12.50;99.90;;;;;;5058508;28;20061;-85
2021/10/06 02:49:22;;;;;;;9.48;2.35;;;12.60;99.90;;;;;;5059660;28;20051;-84
2021/10/06 02:51:48;;;;;;;7.68;1.70;;;12.60;99.90;;;;;;5060183;28;20032;-85
2021/10/06 02:54:14;;;;;;;5.15;1.30;;;12.60;99.90;;;;;;5060202;28;20025;-84
2021/10/06 02:56:39;;;;;;;11.95;1.77;;;12.60;99.90;;;;;;5060307;28;20028;-84
2021/10/06 02:59:05;;;;;;;11.40;1.80;;;12.60;99.90;;;;;;5060133;28;20029;-85
2021/10/06 03:01:31;;;;;;;6.60;1.30;;;12.60;99.90;;;;;;5062107;28;20035;-84
2021/10/06 03:03:56;;;;;;;16.85;1.90;;;12.60;99.90;;;;;;5061900;28;20090;-85
2021/10/06 03:06:22;;;;;;;10.65;1.60;;;12.60;99.90;;;;;;5062409;28;20029;-84
2021/10/06 03:08:48;;;;;;;5.25;1.70;;;12.50;99.90;;;;;;5061322;28;20028;-85
2021/10/06 03:11:13;;;;;;;8.98;1.60;;;12.60;99.90;;;;;;5060390;28;20102;-86
2021/10/06 03:13:39;;;;;;;7.50;1.52;;;12.50;99.90;;;;;;5061805;28;20056;-86
2021/10/06 03:16:04;;;;;;;8.52;2.08;;;12.60;99.90;;;;;;5062595;28;20100;-85
2021/10/06 03:18:30;;;;;;;10.00;1.95;;;12.50;99.90;;;;;;5062116;28;20359;-85
2021/10/06 03:20:56;;;;;;;9.20;2.00;;;12.60;99.90;;;;;;5060472;28;20036;-85
2021/10/06 03:23:22;;;;;;;7.40;1.58;;;12.60;99.90;;;;;;5061512;28;20132;-86
2021/10/06 03:25:48;;;;;;;8.13;1.50;;;12.60;99.90;;;;;;5062440;28;20040;-85
2021/10/06 03:28:14;;;;;;;8.80;1.98;;;12.60;99.90;;;;;;5064415;28;20029;-85
2021/10/06 03:30:39;;;;;;;9.18;1.60;;;12.60;99.90;;;;;;5062011;28;20029;-87
2021/10/06 03:33:05;;;;;;;6.18;1.50;;;12.50;99.90;;;;;;5057798;28;20048;-84
2021/10/06 03:35:31;;;;;;;5.72;1.80;;;12.50;99.90;;;;;;5058066;28;20021;-85
2021/10/06 03:37:56;;;;;;;6.28;1.65;;;12.50;99.90;;;;;;5062595;28;20017;-84
2021/10/06 03:40:23;;;;;;;4.70;1.30;;;12.50;99.90;;;;;;5063143;28;20117;-85
2021/10/06 03:42:49;;;;;;;7.07;1.48;;;12.60;99.90;;;;;;5061660;28;20032;-85
2021/10/06 03:45:15;;;;;;;6.40;1.38;;;12.50;99.90;;;;;;5063330;28;20025;-85
2021/10/06 03:47:42;;;;;;;4.95;1.42;;;12.50;99.90;;;;;;5062910;28;20032;-84
2021/10/06 03:50:09;;;;;;;6.00;1.20;;;12.50;99.90;;;;;;5063319;28;20080;-85
2021/10/06 03:52:35;;;;;;;9.45;1.52;;;12.60;99.90;;;;;;5064719;28;20021;-85
2021/10/06 03:55:01;;;;;;;6.18;1.30;;;12.50;99.90;;;;;;5063091;28;20363;-86
2021/10/06 03:57:26;;;;;;;5.00;1.10;;;12.50;99.90;;;;;;5063498;28;20024;-85
2021/10/06 03:59:52;;;;;;;6.93;1.70;;;12.50;99.90;;;;;;5064039;28;20021;-86
2021/10/06 04:02:17;;;;;;;10.18;1.90;;;12.50;99.90;;;;;;5063445;28;20017;-85
2021/10/06 04:04:43;;;;;;;7.50;1.80;;;12.50;99.90;;;;;;5059619;28;20025;-84
2021/10/06 04:07:09;;;;;;;5.78;1.30;;;12.50;99.90;;;;;;5059055;28;20025;-84
2021/10/06 04:09:34;;;;;;;11.23;2.00;;;12.60;99.90;;;;;;5058810;28;20470;-85
2021/10/06 04:12:00;;;;;;;8.00;1.40;;;12.50;99.90;;;;;;5058036;28;20474;-84
2021/10/06 04:14:26;;;;;;;6.47;1.40;;;12.50;99.90;;;;;;5059882;28;20466;-85
2021/10/06 04:16:51;;;;;;;8.50;1.52;;;12.50;99.90;;;;;;5060134;28;20028;-84
2021/10/06 04:19:17;;;;;;;8.37;1.37;;;12.50;99.90;;;;;;5056802;28;20029;-85
2021/10/06 04:21:42;;;;;;;7.13;1.35;;;12.50;99.90;;;;;;5059080;28;20036;-85
2021/10/06 04:24:08;;;;;;;13.05;1.60;;;12.50;99.90;;;;;;5058346;28;20032;-84
2021/10/06 04:26:34;;;;;;;9.20;1.98;;;12.50;99.90;;;;;;5058238;28;20115;-84
2021/10/06 04:29:00;;;;;;;6.15;1.67;;;12.50;99.90;;;;;;5058562;28;20478;-85
2021/10/06 04:31:25;;;;;;;6.60;1.67;;;12.50;99.90;;;;;;5058724;28;20037;-85
2021/10/06 04:33:51;;;;;;;7.20;1.40;;;12.50;99.90;;;;;;5058884;28;20032;-85
2021/10/06 04:36:18;;;;;;;7.00;1.45;;;12.40;99.90;;;;;;5059230;28;20040;-85
2021/10/06 04:38:44;;;;;;;7.70;1.98;;;12.50;99.90;;;;;;5057042;28;20040;-85
2021/10/06 04:41:10;;;;;;;5.53;1.38;;;12.40;99.90;;;;;;5056996;28;20029;-84
2021/10/06 04:43:35;;;;;;;6.25;1.50;;;12.40;99.90;;;;;;5057896;28;20039;-85
2021/10/06 04:46:01;;;;;;;7.53;2.25;;;12.50;99.90;;;;;;5056983;28;20474;-85
2021/10/06 04:48:27;;;;;;;6.80;1.75;;;12.50;99.90;;;;;;5055431;28;20025;-86
2021/10/06 04:50:52;;;;;;;6.65;1.60;;;12.40;99.90;;;;;;5057579;28;20029;-85
2021/10/06 04:53:20;;;;;;;8.80;1.70;;;12.50;99.90;;;;;;5057548;28;20053;-84
2021/10/06 04:55:45;;;;;;;8.70;2.20;;;12.50;99.90;;;;;;5055689;28;20032;-86
2021/10/06 04:58:11;;;;;;;8.57;1.87;;;12.40;99.90;;;;;;5057054;28;20025;-84
2021/10/06 05:00:37;;;;;;;7.40;1.75;;;12.40;99.90;;;;;;5056297;28;20440;-85
2021/10/06 05:03:13;;;;;;;7.30;1.60;;;12.50;99.90;;;;;;5055845;28;20051;-84
2021/10/06 05:05:40;;;;;;;10.77;1.92;;;12.40;99.90;;;;;;5055636;28;20067;-84
2021/10/06 05:08:08;;;;;;;9.05;1.70;;;12.40;99.90;;;;;;5054967;28;20466;-85
2021/10/06 05:10:34;;;;;;;5.68;1.33;;;12.40;99.90;;;;;;5055916;28;20040;-85
2021/10/06 05:12:59;;;;;;;11.25;1.60;;;12.50;99.90;;;;;;5054907;28;20394;-85
2021/10/06 05:15:25;;;;;;;5.88;1.55;;;12.40;99.90;;;;;;5056946;28;20025;-85
2021/10/06 05:17:51;;;;;;;6.07;1.63;;;12.50;99.90;;;;;;5055011;28;20519;-84
2021/10/06 05:20:16;;;;;;;5.63;1.50;;;12.50;99.90;;;;;;5055315;28;20044;-85
2021/10/06 05:22:42;;;;;;;7.80;1.60;;;12.50;99.90;;;;;;5054717;28;20027;-85
2021/10/06 05:25:08;;;;;;;5.25;1.52;;;12.50;99.90;;;;;;5054362;28;20489;-84
2021/10/06 05:27:34;;;;;;;6.80;1.30;;;12.40;99.90;;;;;;5058082;28;20182;-85
2021/10/06 05:30:02;;;;;;;10.07;1.40;;;12.50;99.90;;;;;;5055036;28;20036;-84
2021/10/06 05:32:27;;;;;;;6.70;1.30;;;12.50;99.90;;;;;;5056959;28;20021;-84
2021/10/06 05:34:53;;;;;;;7.80;1.42;;;12.50;99.90;;;;;;5057085;28;20117;-85
2021/10/06 05:37:18;;;;;;;6.00;1.65;;;12.40;99.90;;;;;;5058986;28;20100;-85
2021/10/06 05:39:44;;;;;;;5.03;1.27;;;12.50;99.90;;;;;;5056863;28;20021;-85
2021/10/06 05:42:10;;;;;;;6.13;1.55;;;12.50;99.90;;;;;;5060147;28;20028;-84
2021/10/06 05:44:35;;;;;;;8.83;1.57;;;12.50;99.90;;;;;;5058067;28;20071;-84
2021/10/06 05:47:01;;;;;;;8.18;1.65;;;12.50;99.90;;;;;;5058198;28;20032;-85
2021/10/06 05:49:27;;;;;;;9.05;1.77;;;12.50;99.90;;;;;;5057139;28;20029;-85
2021/10/06 05:51:53;;;;;;;8.50;1.23;;;12.50;99.90;;;;;;5057643;28;20485;-85
2021/10/06 05:54:19;;;;;;;5.77;1.40;;;12.40;99.90;;;;;;5058347;28;20040;-84
2021/10/06 05:56:44;;;;;;;9.65;1.88;;;12.50;99.90;;;;;;5057877;28;20537;-84
2021/10/06 05:59:10;;;;;;;7.05;1.55;;;12.50;99.90;;;;;;5054767;28;20020;-84
2021/10/06 06:01:36;;;;;;;7.32;1.55;;;12.50;99.90;;;;;;5056553;28;20508;-85
2021/10/06 06:04:02;;;;;;;5.47;1.27;;;12.60;99.90;;;;;;5056079;28;20021;-84
2021/10/06 06:06:30;;;;;;;9.07;1.48;;;12.50;99.90;;;;;;5056887;28;20025;-84
2021/10/06 06:08:56;;;;;;;5.73;1.43;;;12.50;99.90;;;;;;5057016;28;20025;-85
2021/10/06 06:11:22;;;;;;;8.10;1.25;;;12.50;99.90;;;;;;5058959;28;20371;-84
2021/10/06 06:13:51;;;;;;;6.03;1.43;;;12.60;99.90;;;;;;5058760;28;20032;-85
2021/10/06 06:16:17;;;;;;;9.18;1.50;;;12.60;99.90;;;;;;5057757;28;20017;-84
2021/10/06 06:18:43;;;;;;;6.72;1.50;;;12.50;99.90;;;;;;5055718;28;20040;-85
2021/10/06 06:21:09;;;;;;;7.32;1.55;;;12.50;99.90;;;;;;5057449;28;20029;-85
2021/10/06 06:23:35;;;;;;;6.93;1.40;;;12.50;99.90;;;;;;5058084;28;20067;-84
2021/10/06 06:26:01;;;;;;;6.93;1.52;;;12.50;99.90;;;;;;5056545;28;20439;-84
2021/10/06 06:28:27;;;;;;;8.13;2.05;;;12.50;99.90;;;;;;5056129;28;20052;-84
2021/10/06 06:30:53;;;;;;;7.93;1.70;;;12.40;99.90;;;;;;5059347;28;20378;-84
2021/10/06 06:33:19;;;;;;;9.38;1.75;;;12.40;99.90;;;;;;5062113;28;20021;-85
2021/10/06 06:35:44;;;;;;;6.00;1.50;;;12.40;99.90;;;;;;5061245;28;20025;-84
2021/10/06 06:38:11;;;;;;;7.90;1.60;;;12.40;99.90;;;;;;5059297;28;20068;-85
2021/10/06 06:40:40;;;;;;;10.30;2.80;;;12.30;99.90;;;;;;5058566;28;20029;-85
2021/10/06 06:43:10;;;;;;;6.97;1.77;;;12.30;99.90;;;;;;5060096;28;20397;-86
2021/10/06 06:45:36;;;;;;;8.20;2.00;;;12.30;99.90;;;;;;5061169;28;20056;-85
2021/10/06 06:48:06;;;;;;;8.68;2.70;;;12.30;99.90;;;;;;5060310;28;20086;-85
2021/10/06 06:50:32;;;;;;;10.93;2.40;;;12.20;99.90;;;;;;5059594;28;20056;-84
2021/10/06 06:52:58;;;;;;;11.10;2.90;;;12.20;99.90;;;;;;5061359;28;20029;-84
2021/10/06 06:55:23;;;;;;;11.00;3.50;;;12.20;99.90;;;;;;5060449;28;20025;-84
2021/10/06 06:57:49;;;;;;;11.47;3.83;;;12.20;99.90;;;;;;5059394;28;20436;-85
2021/10/06 07:00:15;;;;;;;9.47;3.10;;;12.20;99.90;;;;;;5061254;28;20048;-84
2021/10/06 07:02:41;;;;;;;8.87;3.10;;;12.10;99.90;;;;;;5061509;28;20025;-85
2021/10/06 07:05:07;;;;;;;8.27;2.50;;;12.10;99.90;;;;;;5061414;28;20459;-85
2021/10/06 07:07:32;;;;;;;12.98;2.67;;;12.10;99.90;;;;;;5060557;28;20394;-86
2021/10/06 07:09:58;;;;;;;8.93;2.43;;;12.10;99.90;;;;;;5059555;28;20033;-84
2021/10/06 07:12:25;;;;;;;9.57;2.10;;;12.10;99.90;;;;;;5065650;28;20140;-85
2021/10/06 07:14:51;;;;;;;8.13;2.00;;;12.10;99.90;;;;;;5064509;28;20444;-85
2021/10/06 07:17:18;;;;;;;6.30;1.80;;;12.10;99.90;;;;;;5064936;28;20029;-86
2021/10/06 07:19:46;;;;;;;9.23;1.57;;;12.10;99.90;;;;;;5086080;22;20044;-84
2021/10/06 07:22:12;;;;;;;7.50;1.53;;;12.10;99.90;;;;;;5055156;28;20086;-84
2021/10/06 07:24:38;;;;;;;9.10;1.73;;;12.10;99.90;;;;;;5055133;28;20020;-84
2021/10/06 07:27:04;;;;;;;7.70;1.83;;;12.10;99.90;;;;;;5054963;28;20424;-83
2021/10/06 07:29:30;;;;;;;6.43;1.73;;;12.10;99.90;;;;;;5054597;28;20585;-84
2021/10/06 07:31:56;;;;;;;5.50;1.50;;;12.10;99.90;;;;;;5056187;28;20124;-84
2021/10/06 07:34:21;;;;;;;8.32;1.88;;;12.10;99.90;;;;;;5055376;28;20021;-84
2021/10/06 07:36:47;;;;;;;11.17;2.47;;;12.10;99.90;;;;;;5054874;28;20023;-84
2021/10/06 07:39:13;;;;;;;8.60;2.20;;;12.10;99.90;;;;;;5054966;28;20497;-84
2021/10/06 07:41:39;;;;;;;6.00;1.80;;;12.20;99.90;;;;;;5055614;28;20609;-84
2021/10/06 07:44:05;;;;;;;8.53;2.20;;;12.20;99.90;;;;;;5055824;28;20112;-84
2021/10/06 07:46:30;;;;;;;8.50;1.67;;;12.20;99.90;;;;;;5056157;28;20104;-84
2021/10/06 07:48:56;;;;;;;7.47;1.58;;;12.30;99.90;;;;;;5053938;28;20075;-84
2021/10/06 07:51:23;;;;;;;6.50;1.47;;;12.30;99.90;;;;;;5054356;28;20057;-84
2021/10/06 07:53:49;;;;;;;8.05;1.75;;;12.30;99.90;;;;;;5054131;28;20021;-84
2021/10/06 07:56:15;;;;;;;6.27;2.00;;;12.20;99.90;;;;;;5055696;28;20021;-84
2021/10/06 07:58:41;;;;;;;7.00;1.90;;;12.20;99.90;;;;;;5054777;28;20044;-83
2021/10/06 08:01:08;;;;;;;8.50;1.40;;;12.20;99.90;;;;;;5054813;28;20497;-84
2021/10/06 08:03:33;;;;;;;6.57;1.43;;;12.20;99.90;;;;;;5054223;28;20069;-84
2021/10/06 08:05:59;;;;;;;7.70;1.77;;;12.10;99.90;;;;;;5054163;28;20032;-83
2021/10/06 08:08:26;;;;;;;6.00;1.50;;;12.10;99.90;;;;;;5055900;28;20033;-83
2021/10/06 08:10:58;;;;;;;6.13;1.65;;;12.10;99.90;;;;;;5053631;28;20033;-84
2021/10/06 08:13:24;;;;;;;7.80;1.40;;;12.10;99.90;;;;;;5055772;28;20100;-84
2021/10/06 08:15:51;;;;;;;8.90;1.53;;;12.10;99.90;;;;;;5055387;28;20053;-84
2021/10/06 08:18:17;;;;;;;5.22;1.30;;;12.10;99.90;;;;;;5054037;28;20032;-84
2021/10/06 08:20:46;;;;;;;8.27;1.33;;;12.10;99.90;;;;;;5053318;28;20029;-84
2021/10/06 08:23:12;;;;;;;8.63;1.37;;;12.10;99.90;;;;;;5053594;28;20052;-85
2021/10/06 08:25:38;;;;;;;8.43;1.70;;;12.10;99.90;;;;;;5055500;28;20029;-84
2021/10/06 08:28:04;;;;;;;5.13;1.10;;;12.10;99.90;;;;;;5053968;28;20044;-84
2021/10/06 08:30:29;;;;;;;5.10;1.57;;;12.20;99.90;;;;;;5053446;28;20112;-84
2021/10/06 08:32:55;;;;;;;5.97;1.93;;;12.20;99.90;;;;;;5054259;28;20037;-84
2021/10/06 08:35:21;;;;;;;6.80;1.77;;;12.20;99.90;;;;;;5054509;28;20028;-84
2021/10/06 08:37:46;;;;;;;7.20;1.50;;;12.20;99.90;;;;;;5053909;28;20122;-84
2021/10/06 08:40:13;;;;;;;6.40;1.50;;;12.30;99.90;;;;;;5053572;28;20068;-83
2021/10/06 08:42:40;;;;;;;8.73;2.58;;;12.30;99.90;;;;;;5055394;28;20048;-85
2021/10/06 08:45:07;;;;;;;8.23;2.20;;;12.30;99.90;;;;;;5054150;28;20492;-84
2021/10/06 08:47:40;;;;;;;6.70;2.00;;;12.30;99.90;;;;;;5053969;28;20108;-84
2021/10/06 08:50:12;;;;;;;5.70;1.37;;;12.30;99.90;;;;;;5053321;28;20056;-84
2021/10/06 08:52:38;;;;;;;7.73;1.77;;;12.30;99.90;;;;;;5053912;28;20021;-84
2021/10/06 08:55:06;;;;;;;7.67;1.90;;;12.30;99.90;;;;;;5054984;28;20040;-85
2021/10/06 08:57:32;;;;;;;7.80;1.40;;;12.30;99.90;;;;;;5053592;28;20036;-84
2021/10/06 08:59:58;;;;;;;6.13;1.70;;;12.30;99.90;;;;;;5054518;28;20474;-84
2021/10/06 09:02:24;;;;;;;7.23;1.80;;;12.40;99.90;;;;;;5053114;28;20061;-84
2021/10/06 09:04:50;;;;;;;8.27;1.63;;;12.30;99.90;;;;;;5053391;28;20036;-84
2021/10/06 09:07:16;;;;;;;6.97;1.83;;;12.40;99.90;;;;;;5054570;28;20032;-84
2021/10/06 09:09:42;;;;;;;6.30;1.70;;;12.40;99.90;;;;;;5053276;28;20063;-83
2021/10/06 09:12:13;;;;;;;7.33;2.20;;;12.40;99.90;;;;;;5052891;28;20029;-84
2021/10/06 09:14:41;;;;;;;7.23;1.73;;;12.40;99.90;;;;;;5054756;28;20104;-83
2021/10/06 09:17:13;;;;;;;6.17;1.93;;;12.40;99.90;;;;;;5052807;28;20503;-83
2021/10/06 09:19:40;;;;;;;10.20;2.80;;;12.50;99.90;;;;;;5054271;28;20071;-84
2021/10/06 09:22:12;;;;;;;7.47;2.83;;;12.60;99.90;;;;;;5053071;28;20082;-84
2021/10/06 09:24:58;;;;;;;10.33;3.20;;;12.60;99.90;;;;;;5052880;28;20024;-84
2021/10/06 09:27:29;;;;;;;8.67;3.40;;;12.60;99.90;;;;;;5052935;28;20033;-85
2021/10/06 09:30:01;;;;;;;13.73;3.95;;;12.60;99.90;;;;;;5052636;28;20037;-84
2021/10/06 09:32:34;;;;;;;9.37;3.50;;;12.60;99.90;;;;;;5052493;28;20464;-85
2021/10/06 09:35:00;;;;;;;7.13;2.28;;;12.60;99.90;;;;;;5052689;28;20021;-84
2021/10/06 09:37:26;;;;;;;7.60;2.60;;;12.70;99.90;;;;;;5052720;28;20033;-84
2021/10/06 09:39:53;;;;;;;6.93;2.33;;;12.70;99.90;;;;;;5052174;28;20021;-83
2021/10/06 09:42:19;;;;;;;6.57;2.22;;;12.70;99.90;;;;;;5053684;28;20028;-84
2021/10/06 09:44:56;;;;;;;6.38;1.63;;;12.70;99.90;;;;;;5052856;28;20218;-84
2021/10/06 09:47:23;;;;;;;7.18;1.85;;;12.70;99.90;;;;;;5052449;28;20024;-85
2021/10/06 09:49:58;;;;;;;5.60;1.73;;;12.70;99.90;;;;;;5051729;28;20525;-84
2021/10/06 09:52:32;;;;;;;7.10;1.75;;;12.70;99.90;;;;;;5051810;28;20062;-83
2021/10/06 09:55:06;;;;;;;5.50;1.67;;;12.70;99.90;;;;;;5052298;28;20044;-84
2021/10/06 09:57:41;;;;;;;4.20;1.30;;;12.70;99.90;;;;;;5053789;28;20025;-84
2021/10/06 10:00:14;;;;;;;3.13;1.08;;;12.60;99.90;;;;;;5051474;28;20033;-85
2021/10/06 10:02:40;;;;;;;3.80;1.30;;;12.60;99.90;;;;;;5053682;28;20036;-83
2021/10/06 10:05:08;;;;;;;5.85;1.50;;;12.60;99.90;;;;;;5052447;28;20025;-84
2021/10/06 10:07:34;;;;;;;4.93;2.23;;;12.50;99.90;;;;;;5053736;28;20032;-84
2021/10/06 10:10:00;;;;;;;9.43;3.00;;;12.50;99.90;;;;;;5053462;28;20029;-84
2021/10/06 10:12:27;;;;;;;7.23;4.00;;;12.50;99.90;;;;;;5051478;28;20033;-84
2021/10/06 10:14:53;;;;;;;9.33;3.23;;;12.50;99.90;;;;;;5051924;28;20025;-84
2021/10/06 10:17:19;;;;;;;6.33;2.00;;;12.40;99.90;;;;;;5052132;28;20033;-83
2021/10/06 10:19:52;;;;;;;6.85;2.70;;;12.40;99.90;;;;;;5053043;28;20621;-84
2021/10/06 10:22:20;;;;;;;4.23;1.80;;;12.30;99.90;;;;;;5051874;28;20029;-84
2021/10/06 10:24:48;;;;;;;4.07;1.50;;;12.30;99.90;;;;;;5051923;28;20044;-84
2021/10/06 10:27:18;;;;;;;7.32;1.60;;;12.30;99.90;;;;;;5053186;28;20029;-84
2021/10/06 10:29:56;;;;;;;3.57;1.70;;;12.30;99.90;;;;;;5054527;28;20056;-85
2021/10/06 10:32:24;;;;;;;4.90;2.17;;;12.20;99.90;;;;;;5052617;28;20029;-84
2021/10/06 10:34:56;;;;;;;5.22;2.28;;;12.20;99.90;;;;;;5052550;28;20295;-84
2021/10/06 10:38:00;;;;;;;6.33;2.10;;;12.20;99.90;;;;;;5053261;28;20543;-84
2021/10/06 10:40:34;;;;;;;7.87;2.40;;;12.20;99.90;;;;;;5020778;28;20041;-84
2021/10/06 10:43:13;;;;;;;5.50;2.50;;;12.20;99.90;;;;;;5051605;28;20040;-84
2021/10/06 10:46:11;;;;;;;5.20;2.30;;;12.20;99.90;;;;;;5053995;28;20028;-84
2021/10/06 10:48:56;;;;;;;7.93;3.33;;;12.30;99.90;;;;;;5056182;28;20037;-84
2021/10/06 10:51:43;;;;;;;7.10;3.03;;;12.30;99.90;;;;;;5055942;28;20040;-84
2021/10/06 10:54:10;;;;;;;10.43;4.47;;;12.30;99.90;;;;;;5056058;28;20551;-84
2021/10/06 10:56:39;;;;;;;8.77;4.50;;;12.40;99.90;;;;;;5055725;28;20120;-84
2021/10/06 10:59:15;;;;;;;9.05;3.45;;;12.40;99.90;;;;;;5056575;28;20017;-84
2021/10/06 11:01:53;;;;;;;11.70;3.53;;;12.40;99.90;;;;;;5055838;28;20062;-84
2021/10/06 11:04:28;;;;;;;8.13;3.60;;;12.50;99.90;;;;;;5056313;28;20055;-84
2021/10/06 11:07:18;;;;;;;11.67;4.10;;;12.50;99.90;;;;;;5056105;28;20025;-84
2021/10/06 11:10:02;;;;;;;9.38;4.05;;;12.50;99.90;;;;;;5055567;28;20087;-84
2021/10/06 11:12:33;;;;;;;8.80;3.88;;;12.50;99.90;;;;;;5055464;28;20296;-84
2021/10/06 11:15:23;;;;;;;7.22;3.55;;;12.60;99.90;;;;;;5055612;28;20029;-85
2021/10/06 11:18:08;;;;;;;7.47;3.85;;;12.60;99.90;;;;;;5055599;28;20032;-84
2021/10/06 11:20:42;;;;;;;6.57;2.90;;;12.70;99.90;;;;;;5057010;28;20037;-84
2021/10/06 11:23:33;;;;;;;6.20;3.10;;;12.70;99.90;;;;;;5055462;28;20021;-84
2021/10/06 11:26:13;;;;;;;11.23;5.37;;;12.70;99.90;;;;;;5055269;28;20040;-84
2021/10/06 11:28:42;;;;;;;8.53;3.90;;;12.70;99.90;;;;;;5057099;28;20025;-83
2021/10/06 11:31:09;;;;;;;8.25;4.85;;;12.80;99.90;;;;;;5056923;28;20108;-84
2021/10/06 11:33:35;;;;;;;8.70;5.00;;;12.80;99.90;;;;;;5057861;28;20032;-85
2021/10/06 11:36:19;;;;;;;7.43;3.60;;;12.80;99.90;;;;;;5056821;28;20389;-86
2021/10/06 11:38:56;;;;;;;7.47;3.60;;;12.80;99.90;;;;;;5058060;28;20102;-84
2021/10/06 11:41:22;;;;;;;8.18;3.20;;;12.70;99.90;;;;;;5058069;28;20017;-84
2021/10/06 11:43:51;;;;;;;6.43;3.27;;;12.70;99.90;;;;;;5056350;28;20021;-84
2021/10/06 11:46:33;;;;;;;5.25;3.05;;;12.70;99.90;;;;;;5056510;28;20107;-84
2021/10/06 11:49:04;;;;;;;10.43;5.10;;;12.70;99.90;;;;;;5056313;28;20457;-84
2021/10/06 11:51:46;;;;;;;12.65;8.88;;;12.70;99.90;;;;;;5056626;28;20025;-84
2021/10/06 11:54:13;;;;;;;9.00;3.88;;;12.70;99.90;;;;;;5057713;28;20025;-84
2021/10/06 11:56:39;;;;;;;10.57;6.10;;;12.70;99.90;;;;;;5056152;28;20242;-84
2021/10/06 11:59:13;;;;;;;9.25;4.72;;;12.70;99.90;;;;;;5056138;28;20017;-84
2021/10/06 12:01:41;;;;;;;9.52;3.78;;;12.80;99.90;;;;;;5056928;28;20065;-85
2021/10/06 12:04:08;;;;;;;7.38;3.80;;;12.80;99.90;;;;;;5055178;28;20075;-84
2021/10/06 12:06:34;;;;;;;6.65;3.00;;;12.80;99.90;;;;;;5055194;28;20029;-83
2021/10/06 12:09:07;;;;;;;5.65;2.60;;;12.80;99.90;;;;;;5055244;28;20564;-84
2021/10/06 12:11:32;;;;;;;6.75;2.80;;;12.80;99.90;;;;;;5058557;28;20420;-84
2021/10/06 12:13:58;;;;;;;9.63;4.80;;;12.80;99.90;;;;;;5061763;28;20031;-84
2021/10/06 12:16:29;;;;;;;6.28;3.20;;;12.90;99.90;;;;;;5060613;28;20025;-84
2021/10/06 12:18:55;;;;;;;3.25;2.50;;;12.90;99.90;;;;;;5062674;28;20025;-84
2021/10/06 12:21:21;;;;;;;6.05;2.88;;;12.90;99.90;;;;;;5061667;28;20402;-84
2021/10/06 12:23:47;;;;;;;7.37;2.70;;;12.90;99.90;;;;;;5060345;28;20039;-84
2021/10/06 12:26:13;;;;;;;3.95;2.50;;;12.90;99.90;;;;;;5061016;28;20035;-84
2021/10/06 12:28:57;;;;;;;3.90;2.23;;;12.90;99.90;;;;;;5060937;28;20096;-83
2021/10/06 12:31:26;;;;;;;4.15;2.55;;;12.90;99.90;;;;;;5062069;28;20056;-84
2021/10/06 12:34:06;;;;;;;;;;;12.90;99.90;;;;;;5062081;28;20581;-84
2021/10/06 12:36:32;;;;;;;6.22;2.90;;;13.00;99.90;;;;;;5062089;28;19908;-84
2021/10/06 12:38:59;;;;;;;8.38;3.60;;;13.00;99.90;;;;;;5059406;28;20025;-86
2021/10/06 12:41:36;;;;;;;6.50;3.67;;;13.00;99.90;;;;;;5059591;28;20025;-85
2021/10/06 12:44:02;;;;;;;8.73;4.25;;;13.00;99.90;;;;;;5059613;28;20037;-84
2021/10/06 12:46:28;;;;;;;6.32;4.03;;;13.00;99.90;;;;;;5061066;28;20029;-85
2021/10/06 12:48:56;;;;;;;6.53;3.88;;;13.00;99.90;;;;;;5058791;28;20029;-84